Strona główna
METAR-TAF:

METAR-TAF

Lotnisko :

Schwäbisch Hall, Niemcy

Szerokość geograficzna: 49-07-06N, Długość geograficzna: 9-47-02E, wysokość: 398 m

Aktualna obserwacja pogody

Raport powstał 40 minut temu, godzina 19:50 UTC
Wiatr 7 kt od południowy zachód
Temperatura 6°C
Wilgotność 93%
Ciśnienie 1018 hPa
Widzialność 10 km lub więcej

METAR: EDTY 071950Z AUTO 23007KT 9999 // FEW011/// OVC046/// 06/05 Q1018

czas: 21:30 (20:30 UTC)

Prognoza

Raport powstał 3 godziny i 30 minut temu, godzina 17:00 UTC
Prognoza ważna od 07 godzina 18 UTC do 08 godzina 03 UTC
Wiatr 10 kt od zachodnio-południowy zachód
Widzialność 10 km lub więcej
Przerywane chmury na wysokości 2000 ft
Prawdopodobieństwo 30% :
Przejściowo
od 07 godzina 18 UTC do 07 godzina 21 UTC
Przerywane chmury na wysokości 1400 ft

TAF: EDTY 071700Z 0718/0803 24010KT 9999 BKN020 PROB30 TEMPO 0718/0721 BKN014

Obserwacja i prognoza pogody dla ponad 4000 lotnisk (raport METAR i TAF).

Dostępne stacje oznaczono żółtymi i czerwonymi punktami na mapie.

Najedź kursorem aby zobaczyć nazwę stacji.

Kliknij aby zobaczyć obserwacje i prognozy pogody.

Aby zmienić mapę: kliknij na zielony przycisk z czarnym krzyżykiem, aby powiększyć; na zielony przycisk z myślnikiem, aby pomniejszyć; na zielone strzałki, aby przejść do map sąsiednich.


METAR-TAF: